sensor_id;sensor_type;location;lat;lon;timestamp;temperature;humidity
43671;DHT22;29267;50.906;7.248;2023-02-28T00:01:28;-0.60;99.90
43671;DHT22;29267;50.906;7.248;2023-02-28T00:03:54;-0.60;99.90
43671;DHT22;29267;50.906;7.248;2023-02-28T00:06:20;-0.60;99.90
43671;DHT22;29267;50.906;7.248;2023-02-28T00:08:46;-0.60;99.90
43671;DHT22;29267;50.906;7.248;2023-02-28T00:11:14;-0.60;99.90
43671;DHT22;29267;50.906;7.248;2023-02-28T00:13:42;-0.60;99.90
43671;DHT22;29267;50.906;7.248;2023-02-28T00:16:13;-0.60;99.90
43671;DHT22;29267;50.906;7.248;2023-02-28T00:18:39;-0.60;99.90
43671;DHT22;29267;50.906;7.248;2023-02-28T00:21:05;-0.60;99.90
43671;DHT22;29267;50.906;7.248;2023-02-28T00:23:31;-0.60;99.90
43671;DHT22;29267;50.906;7.248;2023-02-28T00:25:57;-0.70;99.90
43671;DHT22;29267;50.906;7.248;2023-02-28T00:28:23;-0.70;99.90
43671;DHT22;29267;50.906;7.248;2023-02-28T00:30:49;-0.70;99.90
43671;DHT22;29267;50.906;7.248;2023-02-28T00:33:15;-0.80;99.90
43671;DHT22;29267;50.906;7.248;2023-02-28T00:35:40;-0.70;99.90
43671;DHT22;29267;50.906;7.248;2023-02-28T00:38:06;-0.80;99.90
43671;DHT22;29267;50.906;7.248;2023-02-28T00:40:32;-0.90;99.90
43671;DHT22;29267;50.906;7.248;2023-02-28T00:42:57;-0.90;99.90
43671;DHT22;29267;50.906;7.248;2023-02-28T00:45:23;-0.90;99.90
43671;DHT22;29267;50.906;7.248;2023-02-28T00:47:49;-0.90;99.90
43671;DHT22;29267;50.906;7.248;2023-02-28T00:50:18;-0.90;99.90
43671;DHT22;29267;50.906;7.248;2023-02-28T00:52:45;-0.90;99.90
43671;DHT22;29267;50.906;7.248;2023-02-28T00:55:11;-1.00;99.90
43671;DHT22;29267;50.906;7.248;2023-02-28T00:57:36;-0.90;99.90
43671;DHT22;29267;50.906;7.248;2023-02-28T01:00:03;-0.90;99.90
43671;DHT22;29267;50.906;7.248;2023-02-28T01:02:29;-0.90;99.90
43671;DHT22;29267;50.906;7.248;2023-02-28T01:04:55;-0.90;99.90
43671;DHT22;29267;50.906;7.248;2023-02-28T01:07:22;-1.00;99.90
43671;DHT22;29267;50.906;7.248;2023-02-28T01:09:48;-0.90;99.90
43671;DHT22;29267;50.906;7.248;2023-02-28T01:12:13;-1.00;99.90
43671;DHT22;29267;50.906;7.248;2023-02-28T01:14:39;-1.00;99.90
43671;DHT22;29267;50.906;7.248;2023-02-28T01:17:05;-1.00;99.90
43671;DHT22;29267;50.906;7.248;2023-02-28T01:19:30;-1.00;99.90
43671;DHT22;29267;50.906;7.248;2023-02-28T01:21:56;-1.00;99.90
43671;DHT22;29267;50.906;7.248;2023-02-28T01:24:21;-1.00;99.90
43671;DHT22;29267;50.906;7.248;2023-02-28T01:26:47;-1.00;99.90
43671;DHT22;29267;50.906;7.248;2023-02-28T01:29:12;-1.10;99.90
43671;DHT22;29267;50.906;7.248;2023-02-28T01:31:38;-1.00;99.90
43671;DHT22;29267;50.906;7.248;2023-02-28T01:34:04;-1.00;99.90
43671;DHT22;29267;50.906;7.248;2023-02-28T01:36:30;-1.00;99.90
43671;DHT22;29267;50.906;7.248;2023-02-28T01:38:56;-1.10;99.90
43671;DHT22;29267;50.906;7.248;2023-02-28T01:41:27;-1.10;99.90
43671;DHT22;29267;50.906;7.248;2023-02-28T01:43:56;-1.10;99.90
43671;DHT22;29267;50.906;7.248;2023-02-28T01:46:22;-1.10;99.90
43671;DHT22;29267;50.906;7.248;2023-02-28T01:48:48;-1.10;99.90
43671;DHT22;29267;50.906;7.248;2023-02-28T01:51:39;-1.10;99.90
43671;DHT22;29267;50.906;7.248;2023-02-28T01:54:14;-1.10;99.90
43671;DHT22;29267;50.906;7.248;2023-02-28T01:56:45;-1.10;99.90
43671;DHT22;29267;50.906;7.248;2023-02-28T01:59:20;-1.10;99.90
43671;DHT22;29267;50.906;7.248;2023-02-28T02:01:47;-1.10;99.90
43671;DHT22;29267;50.906;7.248;2023-02-28T02:04:13;-1.10;99.90
43671;DHT22;29267;50.906;7.248;2023-02-28T02:06:43;-1.10;99.90
43671;DHT22;29267;50.906;7.248;2023-02-28T02:09:10;-1.10;99.90
43671;DHT22;29267;50.906;7.248;2023-02-28T02:11:36;-1.10;99.90
43671;DHT22;29267;50.906;7.248;2023-02-28T02:14:33;-1.20;99.90
43671;DHT22;29267;50.906;7.248;2023-02-28T02:25:37;-1.30;99.90
43671;DHT22;29267;50.906;7.248;2023-02-28T02:28:41;-1.30;99.90
43671;DHT22;29267;50.906;7.248;2023-02-28T02:45:42;-1.50;99.90
43671;DHT22;29267;50.906;7.248;2023-02-28T02:48:11;-1.40;99.90
43671;DHT22;29267;50.906;7.248;2023-02-28T02:50:52;-1.40;99.90
43671;DHT22;29267;50.906;7.248;2023-02-28T02:53:21;-1.40;99.90
43671;DHT22;29267;50.906;7.248;2023-02-28T02:55:51;-1.40;99.90
43671;DHT22;29267;50.906;7.248;2023-02-28T02:58:22;-1.40;99.90
43671;DHT22;29267;50.906;7.248;2023-02-28T03:00:53;-1.40;99.90
43671;DHT22;29267;50.906;7.248;2023-02-28T03:03:19;-1.30;99.90
43671;DHT22;29267;50.906;7.248;2023-02-28T03:05:54;-1.40;99.90
43671;DHT22;29267;50.906;7.248;2023-02-28T03:08:20;-1.40;99.90
43671;DHT22;29267;50.906;7.248;2023-02-28T03:10:49;-1.40;99.90
43671;DHT22;29267;50.906;7.248;2023-02-28T03:18:43;-1.50;99.90
43671;DHT22;29267;50.906;7.248;2023-02-28T03:23:56;-1.40;99.90
43671;DHT22;29267;50.906;7.248;2023-02-28T03:26:26;-1.50;99.90
43671;DHT22;29267;50.906;7.248;2023-02-28T03:29:06;-1.50;99.90
43671;DHT22;29267;50.906;7.248;2023-02-28T03:31:41;-1.40;99.90
43671;DHT22;29267;50.906;7.248;2023-02-28T03:34:19;-1.50;99.90
43671;DHT22;29267;50.906;7.248;2023-02-28T03:36:50;-1.50;99.90
43671;DHT22;29267;50.906;7.248;2023-02-28T03:39:20;-1.60;99.90
43671;DHT22;29267;50.906;7.248;2023-02-28T03:41:57;-1.60;99.90
43671;DHT22;29267;50.906;7.248;2023-02-28T03:44:31;-1.50;99.90
43671;DHT22;29267;50.906;7.248;2023-02-28T03:47:02;-1.50;99.90
43671;DHT22;29267;50.906;7.248;2023-02-28T03:49:36;-1.50;99.90
43671;DHT22;29267;50.906;7.248;2023-02-28T03:52:08;-1.50;99.90
43671;DHT22;29267;50.906;7.248;2023-02-28T03:54:41;-1.60;99.90
43671;DHT22;29267;50.906;7.248;2023-02-28T03:57:23;-1.50;99.90
43671;DHT22;29267;50.906;7.248;2023-02-28T04:00:02;-1.60;99.90
43671;DHT22;29267;50.906;7.248;2023-02-28T04:02:31;-1.70;99.90
43671;DHT22;29267;50.906;7.248;2023-02-28T04:04:57;-1.70;99.90
43671;DHT22;29267;50.906;7.248;2023-02-28T04:07:22;-1.80;99.90
43671;DHT22;29267;50.906;7.248;2023-02-28T04:09:48;-1.90;99.90
43671;DHT22;29267;50.906;7.248;2023-02-28T04:12:13;-1.90;99.90
43671;DHT22;29267;50.906;7.248;2023-02-28T04:14:39;-1.90;99.90
43671;DHT22;29267;50.906;7.248;2023-02-28T04:17:05;-2.00;99.90
43671;DHT22;29267;50.906;7.248;2023-02-28T04:19:30;-2.00;99.90
43671;DHT22;29267;50.906;7.248;2023-02-28T04:21:56;-2.00;99.90
43671;DHT22;29267;50.906;7.248;2023-02-28T04:24:25;-2.00;99.90
43671;DHT22;29267;50.906;7.248;2023-02-28T04:26:53;-1.90;99.90
43671;DHT22;29267;50.906;7.248;2023-02-28T04:29:25;-1.90;99.90
43671;DHT22;29267;50.906;7.248;2023-02-28T04:31:50;-1.90;99.90
43671;DHT22;29267;50.906;7.248;2023-02-28T04:34:18;-1.90;99.90
43671;DHT22;29267;50.906;7.248;2023-02-28T04:36:44;-1.90;99.90
43671;DHT22;29267;50.906;7.248;2023-02-28T04:39:11;-1.90;99.90
43671;DHT22;29267;50.906;7.248;2023-02-28T04:41:37;-1.90;99.90
43671;DHT22;29267;50.906;7.248;2023-02-28T04:44:02;-1.90;99.90
43671;DHT22;29267;50.906;7.248;2023-02-28T04:46:28;-1.90;99.90
43671;DHT22;29267;50.906;7.248;2023-02-28T04:48:54;-1.90;99.90
43671;DHT22;29267;50.906;7.248;2023-02-28T04:51:20;-2.00;99.90
43671;DHT22;29267;50.906;7.248;2023-02-28T04:53:47;-2.00;99.90
43671;DHT22;29267;50.906;7.248;2023-02-28T04:56:15;-2.00;99.90
43671;DHT22;29267;50.906;7.248;2023-02-28T04:58:41;-2.00;99.90
43671;DHT22;29267;50.906;7.248;2023-02-28T05:01:28;-2.00;99.90
43671;DHT22;29267;50.906;7.248;2023-02-28T05:03:57;-2.00;99.90
43671;DHT22;29267;50.906;7.248;2023-02-28T05:06:26;-2.00;99.90
43671;DHT22;29267;50.906;7.248;2023-02-28T05:08:52;-2.00;99.90
43671;DHT22;29267;50.906;7.248;2023-02-28T05:13:48;-2.00;99.90
43671;DHT22;29267;50.906;7.248;2023-02-28T05:16:14;-2.00;99.90
43671;DHT22;29267;50.906;7.248;2023-02-28T05:18:40;-2.00;99.90
43671;DHT22;29267;50.906;7.248;2023-02-28T05:21:12;-2.00;99.90
43671;DHT22;29267;50.906;7.248;2023-02-28T05:23:49;-1.90;99.90
43671;DHT22;29267;50.906;7.248;2023-02-28T05:26:14;-2.00;99.90
43671;DHT22;29267;50.906;7.248;2023-02-28T05:28:40;-1.90;99.90
43671;DHT22;29267;50.906;7.248;2023-02-28T05:31:05;-1.90;99.90
43671;DHT22;29267;50.906;7.248;2023-02-28T05:33:31;-2.00;99.90
43671;DHT22;29267;50.906;7.248;2023-02-28T05:35:56;-2.00;99.90
43671;DHT22;29267;50.906;7.248;2023-02-28T05:38:22;-1.90;99.90
43671;DHT22;29267;50.906;7.248;2023-02-28T05:40:47;-1.90;99.90
43671;DHT22;29267;50.906;7.248;2023-02-28T05:43:13;-2.00;99.90
43671;DHT22;29267;50.906;7.248;2023-02-28T05:45:38;-2.00;99.90
43671;DHT22;29267;50.906;7.248;2023-02-28T05:48:04;-2.00;99.90
43671;DHT22;29267;50.906;7.248;2023-02-28T05:50:30;-2.00;99.90
43671;DHT22;29267;50.906;7.248;2023-02-28T05:52:56;-2.00;99.90
43671;DHT22;29267;50.906;7.248;2023-02-28T05:55:21;-2.00;99.90
43671;DHT22;29267;50.906;7.248;2023-02-28T05:57:47;-2.00;99.90
43671;DHT22;29267;50.906;7.248;2023-02-28T06:00:13;-2.10;99.90
43671;DHT22;29267;50.906;7.248;2023-02-28T06:02:40;-2.10;99.90
43671;DHT22;29267;50.906;7.248;2023-02-28T06:05:13;-2.10;99.90
43671;DHT22;29267;50.906;7.248;2023-02-28T06:07:39;-2.20;99.90
43671;DHT22;29267;50.906;7.248;2023-02-28T06:10:05;-2.20;99.90
43671;DHT22;29267;50.906;7.248;2023-02-28T06:12:31;-2.20;99.90
43671;DHT22;29267;50.906;7.248;2023-02-28T06:14:56;-2.20;99.90
43671;DHT22;29267;50.906;7.248;2023-02-28T06:17:22;-2.10;99.90
43671;DHT22;29267;50.906;7.248;2023-02-28T06:19:47;-2.10;99.90
43671;DHT22;29267;50.906;7.248;2023-02-28T06:22:13;-2.10;99.90
43671;DHT22;29267;50.906;7.248;2023-02-28T06:24:39;-2.10;99.90
43671;DHT22;29267;50.906;7.248;2023-02-28T06:27:04;-2.10;99.90
43671;DHT22;29267;50.906;7.248;2023-02-28T06:29:32;-2.10;99.90
43671;DHT22;29267;50.906;7.248;2023-02-28T06:31:58;-2.20;99.90
43671;DHT22;29267;50.906;7.248;2023-02-28T06:34:23;-2.20;99.90
43671;DHT22;29267;50.906;7.248;2023-02-28T06:36:50;-2.10;99.90
43671;DHT22;29267;50.906;7.248;2023-02-28T06:39:16;-2.10;99.90
43671;DHT22;29267;50.906;7.248;2023-02-28T06:41:42;-2.00;99.90
43671;DHT22;29267;50.906;7.248;2023-02-28T06:44:13;-2.00;99.90
43671;DHT22;29267;50.906;7.248;2023-02-28T06:46:44;-2.00;99.90
43671;DHT22;29267;50.906;7.248;2023-02-28T06:49:10;-1.90;99.90
43671;DHT22;29267;50.906;7.248;2023-02-28T06:51:38;-1.90;99.90
43671;DHT22;29267;50.906;7.248;2023-02-28T06:54:04;-1.90;99.90
43671;DHT22;29267;50.906;7.248;2023-02-28T06:56:30;-1.80;99.90
43671;DHT22;29267;50.906;7.248;2023-02-28T06:58:56;-1.80;99.90
43671;DHT22;29267;50.906;7.248;2023-02-28T07:01:22;-1.80;99.90
43671;DHT22;29267;50.906;7.248;2023-02-28T07:03:49;-1.80;99.90
43671;DHT22;29267;50.906;7.248;2023-02-28T07:06:19;-1.70;99.90
43671;DHT22;29267;50.906;7.248;2023-02-28T07:08:45;-1.70;99.90
43671;DHT22;29267;50.906;7.248;2023-02-28T07:11:10;-1.70;99.90
43671;DHT22;29267;50.906;7.248;2023-02-28T07:13:36;-1.60;99.90
43671;DHT22;29267;50.906;7.248;2023-02-28T07:16:04;-1.50;99.90
43671;DHT22;29267;50.906;7.248;2023-02-28T07:18:31;-1.50;99.90
43671;DHT22;29267;50.906;7.248;2023-02-28T07:20:56;-1.40;99.90
43671;DHT22;29267;50.906;7.248;2023-02-28T07:23:22;-1.30;99.90
43671;DHT22;29267;50.906;7.248;2023-02-28T07:25:50;-1.20;99.90
43671;DHT22;29267;50.906;7.248;2023-02-28T07:28:16;-1.10;99.90
43671;DHT22;29267;50.906;7.248;2023-02-28T07:30:41;-1.10;99.90
43671;DHT22;29267;50.906;7.248;2023-02-28T07:33:07;-1.00;99.90
43671;DHT22;29267;50.906;7.248;2023-02-28T07:35:33;-1.00;99.90
43671;DHT22;29267;50.906;7.248;2023-02-28T07:37:59;-0.90;99.90
43671;DHT22;29267;50.906;7.248;2023-02-28T07:40:25;-0.80;99.90
43671;DHT22;29267;50.906;7.248;2023-02-28T07:42:51;-0.80;99.90
43671;DHT22;29267;50.906;7.248;2023-02-28T07:45:16;-0.70;99.90
43671;DHT22;29267;50.906;7.248;2023-02-28T07:47:43;-0.60;99.90
43671;DHT22;29267;50.906;7.248;2023-02-28T07:50:11;-0.60;99.90
43671;DHT22;29267;50.906;7.248;2023-02-28T07:52:38;-0.50;99.90
43671;DHT22;29267;50.906;7.248;2023-02-28T07:55:05;-0.40;99.90
43671;DHT22;29267;50.906;7.248;2023-02-28T07:57:31;-0.40;99.90
43671;DHT22;29267;50.906;7.248;2023-02-28T07:59:57;-0.30;99.90
43671;DHT22;29267;50.906;7.248;2023-02-28T08:02:23;-0.20;99.90
43671;DHT22;29267;50.906;7.248;2023-02-28T08:04:48;-0.20;99.90
43671;DHT22;29267;50.906;7.248;2023-02-28T08:07:16;-0.10;99.90
43671;DHT22;29267;50.906;7.248;2023-02-28T08:09:42;-0.10;99.90
43671;DHT22;29267;50.906;7.248;2023-02-28T08:12:09;0.00;99.90
43671;DHT22;29267;50.906;7.248;2023-02-28T08:14:35;0.10;99.90
43671;DHT22;29267;50.906;7.248;2023-02-28T08:17:01;0.20;99.90
43671;DHT22;29267;50.906;7.248;2023-02-28T08:19:27;0.20;99.90
43671;DHT22;29267;50.906;7.248;2023-02-28T08:21:54;0.20;99.90
43671;DHT22;29267;50.906;7.248;2023-02-28T08:24:19;0.30;99.90
43671;DHT22;29267;50.906;7.248;2023-02-28T08:26:45;0.40;99.80
43671;DHT22;29267;50.906;7.248;2023-02-28T08:29:11;0.50;99.90
43671;DHT22;29267;50.906;7.248;2023-02-28T08:31:36;0.70;99.80
43671;DHT22;29267;50.906;7.248;2023-02-28T08:34:11;0.80;99.90
43671;DHT22;29267;50.906;7.248;2023-02-28T08:36:37;0.90;98.60
43671;DHT22;29267;50.906;7.248;2023-02-28T08:39:03;1.00;98.90
43671;DHT22;29267;50.906;7.248;2023-02-28T08:41:29;1.00;98.20
43671;DHT22;29267;50.906;7.248;2023-02-28T08:43:54;1.00;98.20
43671;DHT22;29267;50.906;7.248;2023-02-28T08:46:20;1.10;97.40
43671;DHT22;29267;50.906;7.248;2023-02-28T08:48:46;1.00;98.30
43671;DHT22;29267;50.906;7.248;2023-02-28T08:51:16;1.10;97.60
43671;DHT22;29267;50.906;7.248;2023-02-28T08:53:44;1.20;97.00
43671;DHT22;29267;50.906;7.248;2023-02-28T08:56:15;1.30;98.70
43671;DHT22;29267;50.906;7.248;2023-02-28T08:58:42;1.30;95.30
43671;DHT22;29267;50.906;7.248;2023-02-28T09:01:17;1.30;95.90
43671;DHT22;29267;50.906;7.248;2023-02-28T09:03:44;1.30;94.20
43671;DHT22;29267;50.906;7.248;2023-02-28T09:06:12;1.40;95.40
43671;DHT22;29267;50.906;7.248;2023-02-28T09:08:37;1.50;95.10
43671;DHT22;29267;50.906;7.248;2023-02-28T09:11:03;1.60;94.80
43671;DHT22;29267;50.906;7.248;2023-02-28T09:13:30;1.60;94.40
43671;DHT22;29267;50.906;7.248;2023-02-28T09:16:00;1.70;94.20
43671;DHT22;29267;50.906;7.248;2023-02-28T09:18:26;1.70;94.50
43671;DHT22;29267;50.906;7.248;2023-02-28T09:20:52;1.70;93.80
43671;DHT22;29267;50.906;7.248;2023-02-28T09:23:18;1.70;94.80
43671;DHT22;29267;50.906;7.248;2023-02-28T09:25:52;1.80;93.70
43671;DHT22;29267;50.906;7.248;2023-02-28T09:28:18;1.90;94.40
43671;DHT22;29267;50.906;7.248;2023-02-28T09:30:45;2.30;94.50
43671;DHT22;29267;50.906;7.248;2023-02-28T09:33:12;3.20;92.40
43671;DHT22;29267;50.906;7.248;2023-02-28T09:35:37;3.60;91.40
43671;DHT22;29267;50.906;7.248;2023-02-28T09:38:04;4.40;92.00
43671;DHT22;29267;50.906;7.248;2023-02-28T09:40:30;4.90;88.50
43671;DHT22;29267;50.906;7.248;2023-02-28T09:42:57;4.90;87.50
43671;DHT22;29267;50.906;7.248;2023-02-28T09:45:35;5.10;87.10
43671;DHT22;29267;50.906;7.248;2023-02-28T09:48:04;5.20;86.60
43671;DHT22;29267;50.906;7.248;2023-02-28T09:50:46;5.30;84.30
43671;DHT22;29267;50.906;7.248;2023-02-28T09:53:21;5.10;84.40
43671;DHT22;29267;50.906;7.248;2023-02-28T09:56:01;5.10;85.60
43671;DHT22;29267;50.906;7.248;2023-02-28T10:06:53;4.50;87.00
43671;DHT22;29267;50.906;7.248;2023-02-28T10:09:23;4.80;86.50
43671;DHT22;29267;50.906;7.248;2023-02-28T10:11:52;4.60;84.50
43671;DHT22;29267;50.906;7.248;2023-02-28T10:14:28;4.70;84.80
43671;DHT22;29267;50.906;7.248;2023-02-28T10:17:02;4.70;85.20
43671;DHT22;29267;50.906;7.248;2023-02-28T10:19:35;5.00;84.00
43671;DHT22;29267;50.906;7.248;2023-02-28T10:24:49;5.00;87.10
43671;DHT22;29267;50.906;7.248;2023-02-28T10:29:54;4.50;85.60
43671;DHT22;29267;50.906;7.248;2023-02-28T10:35:11;4.40;88.10
43671;DHT22;29267;50.906;7.248;2023-02-28T10:37:41;4.40;85.00
43671;DHT22;29267;50.906;7.248;2023-02-28T10:40:36;4.50;87.00
43671;DHT22;29267;50.906;7.248;2023-02-28T10:51:08;4.60;84.00
43671;DHT22;29267;50.906;7.248;2023-02-28T10:53:45;4.70;82.80
43671;DHT22;29267;50.906;7.248;2023-02-28T10:59:01;4.60;82.60
43671;DHT22;29267;50.906;7.248;2023-02-28T11:01:54;4.50;84.90
43671;DHT22;29267;50.906;7.248;2023-02-28T11:04:31;4.60;84.50
43671;DHT22;29267;50.906;7.248;2023-02-28T11:07:04;4.60;85.40
43671;DHT22;29267;50.906;7.248;2023-02-28T11:09:34;4.70;85.00
43671;DHT22;29267;50.906;7.248;2023-02-28T11:12:19;4.60;84.30
43671;DHT22;29267;50.906;7.248;2023-02-28T11:15:02;4.70;84.30
43671;DHT22;29267;50.906;7.248;2023-02-28T11:17:31;4.60;82.50
43671;DHT22;29267;50.906;7.248;2023-02-28T11:20:06;4.40;83.50
43671;DHT22;29267;50.906;7.248;2023-02-28T11:22:39;4.50;85.20
43671;DHT22;29267;50.906;7.248;2023-02-28T11:25:16;4.50;84.20
43671;DHT22;29267;50.906;7.248;2023-02-28T11:27:49;4.30;82.50
43671;DHT22;29267;50.906;7.248;2023-02-28T11:30:34;4.20;85.80
43671;DHT22;29267;50.906;7.248;2023-02-28T11:33:00;4.30;86.30
43671;DHT22;29267;50.906;7.248;2023-02-28T11:35:38;4.10;83.30
43671;DHT22;29267;50.906;7.248;2023-02-28T11:38:09;4.10;84.50
43671;DHT22;29267;50.906;7.248;2023-02-28T11:51:28;4.20;85.60
43671;DHT22;29267;50.906;7.248;2023-02-28T11:56:39;4.30;83.80
43671;DHT22;29267;50.906;7.248;2023-02-28T12:04:33;4.40;83.50
43671;DHT22;29267;50.906;7.248;2023-02-28T12:07:31;4.30;83.00
43671;DHT22;29267;50.906;7.248;2023-02-28T12:10:03;4.30;84.40
43671;DHT22;29267;50.906;7.248;2023-02-28T12:16:09;4.30;84.40
43671;DHT22;29267;50.906;7.248;2023-02-28T12:20:59;4.40;84.30
43671;DHT22;29267;50.906;7.248;2023-02-28T12:26:45;4.40;83.80
43671;DHT22;29267;50.906;7.248;2023-02-28T12:34:26;4.20;84.10
43671;DHT22;29267;50.906;7.248;2023-02-28T12:36:53;4.30;83.60
43671;DHT22;29267;50.906;7.248;2023-02-28T12:39:36;4.10;84.90
43671;DHT22;29267;50.906;7.248;2023-02-28T12:42:09;4.20;86.20
43671;DHT22;29267;50.906;7.248;2023-02-28T12:44:40;4.30;86.30
43671;DHT22;29267;50.906;7.248;2023-02-28T12:47:14;4.40;86.20
43671;DHT22;29267;50.906;7.248;2023-02-28T12:50:12;4.50;86.30
43671;DHT22;29267;50.906;7.248;2023-02-28T12:53:01;4.40;85.50
43671;DHT22;29267;50.906;7.248;2023-02-28T12:55:46;4.50;86.30
43671;DHT22;29267;50.906;7.248;2023-02-28T12:58:37;4.50;86.40
43671;DHT22;29267;50.906;7.248;2023-02-28T13:09:53;4.30;84.00
43671;DHT22;29267;50.906;7.248;2023-02-28T13:12:19;4.20;84.80
43671;DHT22;29267;50.906;7.248;2023-02-28T13:14:45;4.20;86.50
43671;DHT22;29267;50.906;7.248;2023-02-28T13:17:14;4.30;85.10
43671;DHT22;29267;50.906;7.248;2023-02-28T13:24:56;4.40;85.00
43671;DHT22;29267;50.906;7.248;2023-02-28T13:27:34;4.40;86.50
43671;DHT22;29267;50.906;7.248;2023-02-28T13:30:00;4.50;87.40
43671;DHT22;29267;50.906;7.248;2023-02-28T13:32:34;4.50;85.90
43671;DHT22;29267;50.906;7.248;2023-02-28T13:37:32;4.40;85.90
43671;DHT22;29267;50.906;7.248;2023-02-28T13:47:55;4.60;85.30
43671;DHT22;29267;50.906;7.248;2023-02-28T14:09:03;4.50;85.90
43671;DHT22;29267;50.906;7.248;2023-02-28T14:11:39;4.40;84.70
43671;DHT22;29267;50.906;7.248;2023-02-28T14:14:07;4.50;86.70
43671;DHT22;29267;50.906;7.248;2023-02-28T14:16:44;4.50;85.90
43671;DHT22;29267;50.906;7.248;2023-02-28T14:19:22;4.60;86.60
43671;DHT22;29267;50.906;7.248;2023-02-28T14:27:35;4.70;85.10
43671;DHT22;29267;50.906;7.248;2023-02-28T14:38:49;4.60;85.00
43671;DHT22;29267;50.906;7.248;2023-02-28T14:41:44;4.60;85.90
43671;DHT22;29267;50.906;7.248;2023-02-28T14:44:27;4.60;85.40
43671;DHT22;29267;50.906;7.248;2023-02-28T14:47:02;4.60;86.40
43671;DHT22;29267;50.906;7.248;2023-02-28T14:49:42;4.60;86.10
43671;DHT22;29267;50.906;7.248;2023-02-28T14:54:38;4.70;85.50
43671;DHT22;29267;50.906;7.248;2023-02-28T14:57:05;4.60;86.20
43671;DHT22;29267;50.906;7.248;2023-02-28T14:59:35;4.60;84.20
43671;DHT22;29267;50.906;7.248;2023-02-28T15:02:21;4.60;84.70
43671;DHT22;29267;50.906;7.248;2023-02-28T15:05:01;4.50;84.90
43671;DHT22;29267;50.906;7.248;2023-02-28T15:07:27;4.50;86.00
43671;DHT22;29267;50.906;7.248;2023-02-28T15:10:18;4.50;85.70
43671;DHT22;29267;50.906;7.248;2023-02-28T15:18:46;4.60;85.60
43671;DHT22;29267;50.906;7.248;2023-02-28T15:21:16;4.60;86.20
43671;DHT22;29267;50.906;7.248;2023-02-28T15:23:46;4.60;85.20
43671;DHT22;29267;50.906;7.248;2023-02-28T15:26:15;4.50;85.80
43671;DHT22;29267;50.906;7.248;2023-02-28T15:28:42;4.50;85.20
43671;DHT22;29267;50.906;7.248;2023-02-28T15:31:31;4.50;85.20
43671;DHT22;29267;50.906;7.248;2023-02-28T15:34:03;4.50;86.30
43671;DHT22;29267;50.906;7.248;2023-02-28T15:38:57;4.50;85.90
43671;DHT22;29267;50.906;7.248;2023-02-28T15:41:29;4.40;85.40
43671;DHT22;29267;50.906;7.248;2023-02-28T15:44:27;4.40;86.40
43671;DHT22;29267;50.906;7.248;2023-02-28T15:47:11;4.30;86.10
43671;DHT22;29267;50.906;7.248;2023-02-28T15:49:52;4.30;88.30
43671;DHT22;29267;50.906;7.248;2023-02-28T15:52:41;4.30;87.40
43671;DHT22;29267;50.906;7.248;2023-02-28T15:57:39;4.30;86.40
43671;DHT22;29267;50.906;7.248;2023-02-28T16:00:11;4.30;86.20
43671;DHT22;29267;50.906;7.248;2023-02-28T16:02:38;4.30;87.40
43671;DHT22;29267;50.906;7.248;2023-02-28T16:07:41;4.20;87.10
43671;DHT22;29267;50.906;7.248;2023-02-28T16:10:10;4.10;87.30
43671;DHT22;29267;50.906;7.248;2023-02-28T16:12:38;4.10;87.00
43671;DHT22;29267;50.906;7.248;2023-02-28T16:15:28;4.10;89.10
43671;DHT22;29267;50.906;7.248;2023-02-28T16:17:54;4.10;87.30
43671;DHT22;29267;50.906;7.248;2023-02-28T16:20:22;4.00;88.40
43671;DHT22;29267;50.906;7.248;2023-02-28T16:22:48;4.00;88.30
43671;DHT22;29267;50.906;7.248;2023-02-28T16:25:14;3.90;88.70
43671;DHT22;29267;50.906;7.248;2023-02-28T16:27:42;3.90;90.00
43671;DHT22;29267;50.906;7.248;2023-02-28T16:30:25;3.80;89.40
43671;DHT22;29267;50.906;7.248;2023-02-28T16:32:51;3.80;88.80
43671;DHT22;29267;50.906;7.248;2023-02-28T16:35:18;3.80;89.40
43671;DHT22;29267;50.906;7.248;2023-02-28T16:37:44;3.80;89.50
43671;DHT22;29267;50.906;7.248;2023-02-28T16:40:24;3.70;90.00
43671;DHT22;29267;50.906;7.248;2023-02-28T16:42:52;3.70;89.60
43671;DHT22;29267;50.906;7.248;2023-02-28T16:45:22;3.70;90.40
43671;DHT22;29267;50.906;7.248;2023-02-28T16:47:48;3.70;89.40
43671;DHT22;29267;50.906;7.248;2023-02-28T16:50:34;3.70;89.60
43671;DHT22;29267;50.906;7.248;2023-02-28T16:52:59;3.70;89.30
43671;DHT22;29267;50.906;7.248;2023-02-28T16:55:26;3.60;89.80
43671;DHT22;29267;50.906;7.248;2023-02-28T16:57:54;3.50;90.30
43671;DHT22;29267;50.906;7.248;2023-02-28T17:00:21;3.50;90.40
43671;DHT22;29267;50.906;7.248;2023-02-28T17:02:47;3.30;90.60
43671;DHT22;29267;50.906;7.248;2023-02-28T17:05:13;3.30;90.90
43671;DHT22;29267;50.906;7.248;2023-02-28T17:07:42;3.20;91.20
43671;DHT22;29267;50.906;7.248;2023-02-28T17:10:19;3.10;91.40
43671;DHT22;29267;50.906;7.248;2023-02-28T17:12:45;3.00;91.50
43671;DHT22;29267;50.906;7.248;2023-02-28T17:15:12;2.90;91.60
43671;DHT22;29267;50.906;7.248;2023-02-28T17:17:39;2.80;91.80
43671;DHT22;29267;50.906;7.248;2023-02-28T17:20:05;2.70;91.90
43671;DHT22;29267;50.906;7.248;2023-02-28T17:22:31;2.70;92.30
43671;DHT22;29267;50.906;7.248;2023-02-28T17:24:57;2.70;92.20
43671;DHT22;29267;50.906;7.248;2023-02-28T17:27:24;2.60;92.40
43671;DHT22;29267;50.906;7.248;2023-02-28T17:29:50;2.50;92.50
43671;DHT22;29267;50.906;7.248;2023-02-28T17:32:15;2.50;92.80
43671;DHT22;29267;50.906;7.248;2023-02-28T17:34:41;2.40;92.80
43671;DHT22;29267;50.906;7.248;2023-02-28T17:37:08;2.40;93.10
43671;DHT22;29267;50.906;7.248;2023-02-28T17:39:34;2.40;93.00
43671;DHT22;29267;50.906;7.248;2023-02-28T17:42:00;2.40;93.10
43671;DHT22;29267;50.906;7.248;2023-02-28T17:44:25;2.40;93.20
43671;DHT22;29267;50.906;7.248;2023-02-28T17:46:51;2.30;93.20
43671;DHT22;29267;50.906;7.248;2023-02-28T17:49:19;2.30;93.40
43671;DHT22;29267;50.906;7.248;2023-02-28T17:51:45;2.30;93.60
43671;DHT22;29267;50.906;7.248;2023-02-28T17:54:11;2.30;93.70
43671;DHT22;29267;50.906;7.248;2023-02-28T17:56:36;2.20;93.50
43671;DHT22;29267;50.906;7.248;2023-02-28T17:59:02;2.20;93.70
43671;DHT22;29267;50.906;7.248;2023-02-28T18:01:28;2.10;94.00
43671;DHT22;29267;50.906;7.248;2023-02-28T18:03:54;2.00;94.00
43671;DHT22;29267;50.906;7.248;2023-02-28T18:06:25;1.90;94.20
43671;DHT22;29267;50.906;7.248;2023-02-28T18:08:53;1.90;94.40
43671;DHT22;29267;50.906;7.248;2023-02-28T18:11:19;1.80;94.50
43671;DHT22;29267;50.906;7.248;2023-02-28T18:13:51;1.80;94.70
43671;DHT22;29267;50.906;7.248;2023-02-28T18:16:18;1.80;94.80
43671;DHT22;29267;50.906;7.248;2023-02-28T18:18:44;1.80;94.80
43671;DHT22;29267;50.906;7.248;2023-02-28T18:21:12;1.80;94.70
43671;DHT22;29267;50.906;7.248;2023-02-28T18:23:38;1.80;94.80
43671;DHT22;29267;50.906;7.248;2023-02-28T18:26:13;1.80;94.80
43671;DHT22;29267;50.906;7.248;2023-02-28T18:28:39;1.70;94.80
43671;DHT22;29267;50.906;7.248;2023-02-28T18:31:08;1.60;95.30
43671;DHT22;29267;50.906;7.248;2023-02-28T18:33:34;1.60;95.40
43671;DHT22;29267;50.906;7.248;2023-02-28T18:36:00;1.60;95.60
43671;DHT22;29267;50.906;7.248;2023-02-28T18:38:25;1.60;95.30
43671;DHT22;29267;50.906;7.248;2023-02-28T18:40:59;1.50;95.50